Weather observations for the past three days for
Petaluma Municipal Airport
Metric (Imperial)
Date Time (pdt) Wind (kph) Vis. (km) Weather Sky Cond. Temperature (ºC) Relative Humidity Wind Chill (°C) Heat Index (°C) Pressure Precipitation (cm)
Air Dwpt 6 hour altimeter (cm) sea level (mb) 1 hr 3 hr 6 hr
Max. Min.
07 14:55 W 13 G 26 16.09 Fair CLR 18 13 73% 76.38 0.0
07 14:35 W 19 16.09 Fair CLR 18 12 68% 76.4 0.0
07 14:15 W 20 16.09 Fair CLR 19 13 68% 76.4 0.0
07 13:55 Vrbl 7 G 19 16.09 A Few Clouds FEW017 19 13 68% 76.43 0.0
07 13:35 Vrbl 11 16.09 A Few Clouds FEW017 19 13 68% 76.43 0.0
07 13:15 Vrbl 7 16.09 A Few Clouds FEW015 19 14 73% 76.43 0.0
07 12:55 Vrbl 9 16.09 Mostly Cloudy BKN014 18 13 73% 76.45 0.0
07 12:35 Vrbl 6 16.09 Mostly Cloudy BKN013 17 13 77% 76.48 0.0
07 12:15 Vrbl 7 16.09 Overcast OVC013 17 12 73% 76.48 0.0
07 11:55 Vrbl 7 16.09 Overcast OVC012 16 13 83% 76.5 0.0
07 11:35 Calm 16.09 Overcast OVC010 15 12 82% 76.5 0.0
07 11:15 Calm 16.09 Overcast OVC009 14 12 88% 76.53 0.0
07 10:55 Vrbl 6 16.09 Overcast OVC008 14 12 88% 76.5 0.0
07 10:35 Calm 16.09 Overcast OVC008 13 12 94% 76.53 0.0
07 10:15 Calm 16.09 Overcast OVC007 13 12 94% 76.53 0.0
07 09:55 NW 7 16.09 Overcast OVC006 12 11 94% 76.53 0.0
07 09:35 Calm 16.09 Overcast OVC006 12 11 94% 76.53 0.0
07 09:15 Calm 16.09 Overcast OVC006 11 11 100% 76.5 0.0
07 08:55 Calm 16.09 Overcast OVC005 11 11 100% 76.5 0.0
07 08:35 Calm 14.48 Overcast OVC005 0 0 0% 76.5 0.0
07 08:15 W 9 12.87 Overcast OVC005 10 10 100% 9 76.5 0.0
07 07:55 SW 9 14.48 Overcast OVC005 10 10 100% 9 76.5 0.0
07 07:35 W 7 9.66 Fog/Mist OVC005 10 10 100% 9 76.5 0.0
07 07:15 SW 11 9.66 Fog/Mist OVC005 10 10 100% 9 76.5 0.0
07 06:55 Calm 12.87 Overcast OVC005 10 10 100% 76.48 0.0
07 06:35 SW 6 14.48 Overcast OVC005 10 10 100% 76.48 0.0
07 06:15 W 6 14.48 Overcast OVC005 10 10 100% 76.45 0.0
07 05:55 Vrbl 6 16.09 Overcast OVC005 10 10 100% 76.45 0.0
07 05:35 W 9 14.48 Overcast OVC005 10 10 100% 9 76.45 0.0
07 05:15 W 9 16.09 Overcast OVC005 10 10 100% 9 76.45 0.0
07 04:55 W 13 16.09 Overcast OVC005 10 10 100% 8 76.45 0.0
07 04:35 NW 11 16.09 Overcast OVC005 10 10 100% 9 76.45 0.0
07 04:15 W 11 16.09 Overcast OVC005 11 11 100% 76.45 0.0
07 03:55 W 11 16.09 Overcast OVC005 11 11 100% 76.45 0.0
07 03:35 W 13 16.09 Overcast OVC006 11 11 100% 76.45 0.0
07 03:15 W 11 16.09 Overcast OVC006 11 11 100% 76.48 0.0
07 02:55 W 11 16.09 Overcast OVC006 11 11 100% 76.48 0.0
07 02:35 W 9 16.09 Overcast OVC006 11 11 100% 76.48 0.0
07 02:15 NW 9 16.09 Overcast OVC006 11 11 100% 76.48 0.0
07 01:55 W 9 16.09 Overcast OVC006 11 11 100% 76.48 0.0
07 01:35 Calm 16.09 Overcast OVC007 11 11 100% 76.48 0.0
07 01:15 W 11 16.09 Overcast OVC007 11 11 100% 76.5 0.0
07 00:55 W 11 16.09 Overcast OVC007 11 11 100% 76.5 0.0
07 00:35 W 11 16.09 Overcast OVC008 11 11 100% 76.5 0.0
07 00:15 Calm 16.09 Overcast OVC008 11 11 100% 76.5 0.0
06 23:55 W 11 16.09 Overcast OVC008 11 11 100% 76.48 0.0
06 23:35 W 11 16.09 Overcast OVC008 11 11 100% 76.48 0.0
06 23:15 W 9 16.09 Overcast OVC008 11 11 100% 76.48 0.0
06 22:55 W 11 G 20 16.09 Overcast OVC008 11 11 100% 76.48 0.0
06 22:35 W 11 16.09 Overcast OVC008 11 11 100% 76.48 0.0
06 22:15 W 13 16.09 Overcast OVC008 11 11 100% 76.48 0.0
06 21:55 W 13 16.09 Overcast OVC008 11 11 100% 76.48 0.0
06 21:35 W 13 16.09 Overcast OVC009 12 11 94% 76.48 0.0
06 21:15 W 13 16.09 Overcast OVC009 12 12 100% 76.45 0.0
06 20:55 W 19 16.09 Overcast OVC009 12 11 94% 76.45 0.0
06 20:35 W 17 16.09 Mostly Cloudy BKN009 BKN013 12 12 100% 76.45 0.0
06 20:15 Vrbl 9 G 22 16.09 Partly Cloudy SCT013 12 11 94% 76.45 0.0
06 19:55 W 15 16.09 A Few Clouds FEW013 12 11 94% 76.45 0.0
06 19:35 W 15 16.09 Fair CLR 13 11 88% 76.45 0.0
06 19:15 W 17 16.09 A Few Clouds FEW015 14 11 82% 76.45 0.0
06 18:55 W 20 16.09 Fair CLR 15 11 77% 76.45 0.0
06 18:35 W 20 16.09 A Few Clouds FEW016 15 11 77% 76.45 0.0
06 18:15 W 22 16.09 Fair CLR 16 11 72% 76.45 0.0
06 17:55 W 17 16.09 A Few Clouds FEW017 16 11 72% 76.45 0.0
06 17:35 W 22 16.09 Fair CLR 17 12 73% 76.45 0.0
06 17:15 W 19 16.09 Fair CLR 17 12 73% 76.45 0.0
06 16:55 W 22 G 31 16.09 Fair CLR 18 11 64% 76.45 0.0
06 16:35 W 20 16.09 Fair CLR 18 12 68% 76.45 0.0
06 16:15 W 20 16.09 Fair CLR 18 12 68% 76.45 0.0
06 15:55 W 19 G 30 16.09 Fair CLR 19 12 64% 76.45 0.0
06 15:35 W 22 16.09 Fair CLR 19 13 68% 76.48 0.0
06 15:15 W 20 16.09 Fair CLR 20 13 64% 76.48 0.0
06 14:55 W 17 G 26 16.09 Mostly Cloudy BKN037 20 13 64% 76.5 0.0
06 14:35 W 17 16.09 Overcast OVC037 20 13 64% 76.5 0.0
06 14:15 W 19 16.09 Overcast OVC037 21 13 60% 76.5 0.0
06 13:55 W 15 16.09 Overcast OVC037 21 13 60% 76.5 0.0
06 13:35 W 13 16.09 Overcast OVC037 20 13 64% 76.53 0.0
06 13:15 W 13 16.09 Overcast OVC038 20 13 64% 76.53 0.0
06 12:55 W 17 16.09 Overcast OVC038 20 14 69% 76.53 0.0
06 12:35 W 13 16.09 Overcast OVC038 20 14 69% 76.56 0.0
06 12:15 W 7 16.09 Overcast OVC040 20 13 64% 76.56 0.0
06 11:55 NW 7 16.09 Overcast OVC040 20 13 64% 76.56 0.0
06 11:35 N 7 16.09 Overcast OVC042 20 13 64% 76.58 0.0
06 11:15 Vrbl 7 16.09 Overcast OVC044 19 13 68% 76.58 0.0
06 10:55 Vrbl 11 16.09 Mostly Cloudy BKN045 19 12 64% 76.58 0.0
06 10:35 Vrbl 6 16.09 A Few Clouds FEW020 18 12 68% 76.58 0.0
06 10:15 Calm 16.09 Fair CLR 17 12 73% 76.58 0.0
06 09:55 Vrbl 6 16.09 Fair CLR 17 12 73% 76.58 0.0
06 09:35 NW 6 16.09 Fair CLR 16 11 72% 76.61 0.0
06 09:15 W 7 16.09 A Few Clouds FEW046 0 0 0% 76.58 0.0
06 08:55 Vrbl 7 16.09 Mostly Cloudy BKN045 15 12 82% 76.61 0.0
06 08:35 Calm 16.09 Overcast OVC045 14 12 88% 76.58 0.0
06 08:15 W 7 16.09 Overcast OVC046 13 12 94% 76.58 0.0
06 07:55 W 9 16.09 Overcast OVC046 13 12 94% 76.58 0.0
06 07:35 Calm 16.09 Overcast OVC045 12 12 100% 76.58 0.0
06 07:15 W 9 16.09 Overcast OVC045 12 12 100% 76.56 0.0
06 06:55 Calm 16.09 Overcast OVC044 12 12 100% 76.56 0.0
06 06:35 Calm 16.09 Overcast OVC043 12 12 100% 76.56 0.0
06 06:15 W 6 16.09 Overcast OVC043 12 11 94% 76.53 0.0
06 05:55 W 6 16.09 Overcast OVC043 12 12 100% 76.53 0.0
06 05:35 Calm 16.09 Overcast OVC043 12 11 94% 76.53 0.0
06 05:15 Calm 16.09 Overcast OVC043 12 12 100% 76.53 0.0
06 04:55 Calm 16.09 Overcast FEW009 OVC042 12 12 100% 76.5 0.0
06 04:35 Calm 16.09 Overcast FEW010 OVC041 12 12 100% 76.5 0.0
06 04:15 Calm 16.09 Overcast FEW010 OVC041 12 12 100% 76.5 0.0
06 03:55 Calm 16.09 Overcast SCT011 OVC041 12 12 100% 76.48 0.0
06 03:35 Calm 16.09 Overcast FEW012 OVC041 12 12 100% 76.48 0.0
06 03:15 Calm 16.09 Overcast FEW011 OVC041 12 12 100% 76.48 0.0
06 02:55 Calm 16.09 Overcast BKN012 BKN016 OVC042 12 12 100% 76.48 0.0
06 02:35 W 7 16.09 Overcast OVC014 12 12 100% 76.48 0.0
06 02:15 Calm 16.09 Overcast BKN012 OVC016 12 12 100% 76.48 0.0
06 01:50 Calm 16.09 Overcast SCT011 BKN016 OVC038 12 12 100% 76.48 0.0
06 01:35 Calm 16.09 Overcast BKN011 OVC016 12 12 100% 76.48 0.0
06 01:15 Calm 16.09 Overcast OVC012 12 12 100% 76.48 0.0
06 00:55 Calm 16.09 Overcast BKN012 OVC040 12 12 100% 76.48 0.0
06 00:35 Vrbl 6 16.09 Overcast BKN011 BKN032 OVC041 12 12 100% 76.45 0.0
06 00:15 Calm 16.09 Overcast SCT012 BKN031 OVC039 12 11 94% 76.45 0.0
05 23:55 W 7 16.09 Overcast SCT012 BKN031 OVC037 12 11 94% 76.43 0.0
05 23:35 W 9 16.09 Overcast BKN012 BKN032 OVC037 12 11 94% 76.43 0.0
05 23:15 W 7 16.09 Overcast BKN012 OVC032 12 11 94% 76.43 0.0
05 22:55 NW 7 16.09 Overcast SCT012 OVC033 12 11 94% 76.4 0.0
05 22:35 W 9 16.09 Overcast SCT012 OVC032 12 11 94% 76.4 0.0
05 22:15 Calm 16.09 Overcast SCT012 OVC032 12 12 100% 76.4 0.0
05 21:55 Vrbl 6 16.09 Overcast BKN012 OVC033 12 11 94% 76.38 0.0
05 21:35 Calm 16.09 Overcast SCT012 OVC034 12 11 94% 76.38 0.0
05 21:10 Vrbl 7 16.09 Overcast FEW013 OVC035 12 11 94% 76.35 0.0
05 20:55 Calm 16.09 Overcast FEW029 OVC035 12 11 94% 76.33 0.0
05 20:35 W 11 16.09 Overcast SCT028 OVC035 12 11 94% 76.33 0.0
05 20:15 W 13 16.09 Overcast BKN028 OVC035 13 11 88% 76.28 0.0
05 19:55 Vrbl 7 16.09 Overcast OVC027 13 10 82% 76.28 0.0
05 19:35 W 17 16.09 Overcast OVC026 13 9 77% 76.25 0.0
05 19:15 W 17 16.09 Overcast OVC026 14 10 77% 76.25 0.0
05 18:55 W 19 16.09 Overcast OVC026 14 10 77% 76.23 0.0
05 18:35 W 22 16.09 Overcast OVC026 14 10 77% 76.23 0.0
05 18:15 W 20 G 30 16.09 Overcast OVC026 15 10 72% 76.23 0.0
05 17:55 W 19 G 28 16.09 Overcast OVC026 15 10 72% 76.2 0.0
05 17:35 W 22 16.09 Overcast OVC027 16 10 68% 76.2 0.0
05 17:15 W 19 16.09 Overcast OVC027 17 10 64% 76.17 0.0
05 16:55 W 20 16.09 Overcast OVC028 16 11 72% 76.17 0.0
05 16:35 W 17 G 26 16.09 Overcast OVC027 16 11 72% 76.17 0.0
05 16:15 W 17 16.09 Overcast OVC027 16 11 72% 76.17 0.0
05 15:55 W 17 16.09 Overcast OVC028 17 11 68% 76.17 0.0
05 15:35 W 13 16.09 Overcast OVC027 18 11 64% 76.17 0.0
05 15:15 Vrbl 9 G 19 16.09 Overcast OVC028 18 11 64% 76.17 0.0
05 14:55 W 13 16.09 Overcast OVC030 18 11 64% 76.17 0.0
05 14:30 W 13 16.09 Overcast BKN028 OVC042 19 11 60% 76.2 0.0
05 14:15 Vrbl 7 16.09 Overcast BKN027 OVC041 18 11 64% 76.2 0.0
05 13:55 W 15 16.09 Overcast BKN026 BKN031 OVC040 18 11 64% 76.23 0.0
05 13:35 Vrbl 7 16.09 Overcast OVC025 17 11 68% 76.23 0.0
05 13:15 W 13 16.09 Overcast OVC024 16 11 72% 76.23 0.0
05 12:55 Vrbl 9 16.09 Overcast OVC024 15 11 77% 76.23 0.0
05 12:35 W 9 G 20 16.09 Overcast OVC024 16 11 72% 76.23 0.0
05 12:10 Vrbl 7 G 24 16.09 Overcast BKN025 OVC029 16 11 72% 76.23 0.0
05 11:55 W 13 G 22 16.09 Overcast BKN023 OVC028 16 12 77% 76.23 0.0
05 11:35 W 13 16.09 Overcast OVC022 16 11 72% 76.23 0.0
05 11:15 W 13 16.09 Overcast OVC022 15 10 72% 76.23 0.0
05 10:55 W 15 16.09 Overcast OVC021 14 11 82% 76.23 0.0
05 10:35 W 11 16.09 Overcast BKN020 OVC024 14 11 82% 76.2 0.0
05 10:15 Vrbl 9 16.09 Overcast SCT018 OVC023 14 11 82% 76.2 0.0
05 09:50 NW 9 16.09 Overcast SCT018 BKN023 OVC037 14 11 82% 76.2 0.0
05 09:35 W 11 16.09 Mostly Cloudy FEW016 SCT022 BKN032 13 12 94% 76.2 0.0
05 09:15 W 15 16.09 Overcast BKN016 BKN022 OVC029 13 12 94% 76.2 0.0
05 08:55 W 15 16.09 Overcast BKN013 BKN017 OVC049 13 12 94% 76.17 0.0
05 08:35 W 9 16.09 Overcast BKN013 OVC050 12 12 100% 76.17 0.0
05 08:15 W 11 16.09 Overcast BKN012 OVC050 12 12 100% 76.15 0.0
05 07:55 W 9 16.09 Overcast BKN012 OVC050 12 12 100% 76.15 0.0
05 07:35 W 11 G 20 16.09 Overcast BKN010 BKN055 OVC070 11 11 100% 76.15 0.0
05 07:15 Vrbl 9 16.09 Overcast BKN009 OVC012 11 11 100% 76.12 0.0
05 06:55 Vrbl 9 G 19 16.09 Overcast OVC010 11 11 100% 76.12 0.0
05 06:35 Vrbl 6 16.09 Overcast OVC008 11 11 100% 76.12 0.0
05 06:15 Calm 16.09 Overcast OVC007 11 11 100% 76.1 0.0
05 05:55 Calm 16.09 Overcast OVC007 11 11 100% 76.1 0.0
05 05:35 Calm 16.09 Overcast OVC007 11 11 100% 76.1 0.0
05 05:15 Calm 16.09 Overcast OVC007 11 11 100% 76.1 0.0
05 04:55 Calm 16.09 Overcast OVC007 11 11 100% 76.1 0.0
05 04:35 Vrbl 6 16.09 Overcast OVC007 11 11 100% 76.1 0.0
05 04:15 Calm 16.09 Overcast OVC007 11 11 100% 76.1 0.0
05 03:55 Calm 16.09 Overcast OVC007 11 11 100% 76.12 0.0
05 03:35 Calm 16.09 Overcast OVC007 11 11 100% 76.12 0.0
05 03:15 W 6 16.09 Overcast OVC008 11 11 100% 76.12 0.0
05 02:55 Vrbl 6 16.09 Overcast OVC006 11 11 100% 76.12 0.0 0.03
05 02:35 Calm 16.09 Overcast OVC007 10 10 100% 76.12 0.0
05 02:15 Calm 16.09 Overcast OVC008 10 10 100% 76.12 0.0
05 01:55 Calm 16.09 Overcast OVC008 10 10 100% 76.15 0.0 0.03
05 01:35 Calm 14.48 Overcast BKN008 BKN023 OVC060 10 10 100% 76.17 0.0
05 01:15 W 7 11.27 Overcast BKN007 BKN022 OVC065 10 10 100% 9 76.15 0.0
05 00:55 W 9 8.05 Fog/Mist BKN008 BKN021 OVC032 10 10 100% 9 76.17 0.0 0.25
05 00:35 W 9 11.27 Overcast BKN006 OVC009 11 11 100% 76.17 0.0
05 00:15 W 7 8.05 Fog/Mist BKN006 OVC009 11 11 100% 76.2 0.0
04 23:55 W 7 9.66 Fog/Mist OVC009 11 11 100% 76.17 0.0 0.25
04 23:35 Calm 9.66 Fog/Mist BKN008 OVC011 11 11 100% 76.2 0.0
04 23:15 W 6 9.66 Fog/Mist BKN008 BKN035 OVC070 11 10 94% 76.17 0.0
04 22:55 Vrbl 7 12.87 Overcast BKN007 OVC070 11 10 94% 76.2 0.0 0.05
04 22:35 Calm 11.27 Overcast OVC007 11 10 94% 76.2 0.0
04 22:15 Calm 12.87 Overcast BKN008 BKN013 OVC075 11 11 100% 76.2 0.0
04 21:55 W 6 14.48 Mostly Cloudy FEW009 SCT048 BKN060 11 11 100% 76.2 0.0 0.1
04 21:35 W 7 11.27 Overcast FEW007 BKN055 OVC065 11 11 100% 76.2 0.0
04 21:15 W 6 9.66 Fog/Mist FEW035 SCT049 OVC060 10 10 100% 76.23 0.0
04 20:55 Calm 16.09 Overcast BKN008 BKN048 OVC075 10 10 100% 76.23 0.0 0.1
04 20:35 Vrbl 6 11.27 Overcast BKN008 BKN036 OVC049 10 10 100% 76.15 0.0
04 20:15 Calm 11.27 Mostly Cloudy FEW009 SCT044 BKN050 10 10 100% 76.12 0.0
04 19:55 Calm 8.05 Fog/Mist SCT044 BKN050 BKN065 10 10 100% 76.15 0.0 0.13
04 19:35 Vrbl 9 8.05 Fog/Mist SCT043 BKN060 OVC085 10 10 100% 9 76.15 0.0
04 19:15 Vrbl 7 12.87 Mostly Cloudy SCT008 SCT042 BKN085 11 11 100% 76.17 0.0
04 18:55 NW 7 8.05 Fog/Mist SCT009 BKN040 OVC065 11 11 100% 76.17 0.0 0.13
04 18:35 Calm 11.27 Overcast BKN008 BKN042 OVC065 11 11 100% 76.2 0.0
04 18:15 W 7 9.66 Fog/Mist BKN009 BKN030 OVC080 11 11 100% 76.2 0.0
04 17:55 W 7 9.66 Fog/Mist FEW031 FEW041 BKN075 11 11 100% 76.2 0.0 0.23
04 17:35 W 9 9.66 Fog/Mist FEW041 SCT050 BKN070 11 11 100% 76.2 0.0
04 17:15 NW 7 9.66 Fog/Mist FEW013 FEW032 BKN070 11 11 100% 76.2 0.0
04 16:55 NW 6 9.66 Fog/Mist SCT012 BKN036 BKN055 12 12 100% 76.2 0.0 0.13
04 16:35 Vrbl 7 9.66 Fog/Mist SCT035 SCT044 BKN055 12 12 100% 76.2 0.0
04 16:15 W 13 12.87 Partly Cloudy FEW042 FEW060 SCT075 12 12 100% 76.2 0.0
04 15:55 W 15 12.87 A Few Clouds FEW036 FEW042 FEW060 13 11 88% 76.17 0.0
04 15:35 W 11 16.09 Partly Cloudy FEW070 SCT080 13 10 82% 76.2 0.0
04 15:15 Vrbl 11 16.09 Partly Cloudy FEW065 SCT080 14 10 77% 76.2 0.0
Date Time (pdt) Wind (kph) Vis. (km) Weather Sky Cond. Air Dwpt Max. Min. Relative Humidity Wind Chill (°C) Heat Index (°C) altimeter (cm) sea level (mb) 1 hr 3 hr 6 hr
6 hour
Temperature (ºC) Pressure Precipitation (cm)